Time;durP1;ratioP1;P1;durP2;ratioP2;P2;SDS_P1;SDS_P2;PMS_P1;PMS_P2;Temp;Humidity;BMP_temperature;BMP_pressure;BME280_temperature;BME280_humidity;BME280_pressure;Samples;Min_cycle;Max_cycle;Signal;HPM_P1;HPM_P2
2023/06/30 00:00:12;;;;;;;5.55;4.32;;;20.30;99.90;;;;;;5022870;28;20223;-60
2023/06/30 00:02:47;;;;;;;5.65;4.30;;;20.20;99.90;;;;;;5020839;28;20212;-59
2023/06/30 00:05:15;;;;;;;5.78;4.15;;;20.20;99.90;;;;;;5022836;28;20215;-59
2023/06/30 00:07:42;;;;;;;4.95;3.67;;;20.10;99.90;;;;;;5018736;28;20261;-59
2023/06/30 00:10:10;;;;;;;9.43;4.30;;;20.20;99.90;;;;;;5022080;28;20199;-59
2023/06/30 00:12:37;;;;;;;4.75;3.17;;;20.10;99.90;;;;;;5023374;28;20195;-60
2023/06/30 00:15:05;;;;;;;4.68;3.55;;;20.10;99.90;;;;;;5024961;28;20279;-60
2023/06/30 00:17:32;;;;;;;5.90;3.00;;;20.10;99.90;;;;;;5019403;28;20268;-59
2023/06/30 00:19:59;;;;;;;4.60;3.13;;;20.00;99.90;;;;;;5029664;28;20196;-59
2023/06/30 00:22:27;;;;;;;5.60;3.35;;;20.00;99.90;;;;;;5028481;28;20276;-59
2023/06/30 00:24:55;;;;;;;4.03;3.30;;;20.00;99.90;;;;;;5029572;28;20208;-59
2023/06/30 00:27:23;;;;;;;4.32;2.45;;;20.00;99.90;;;;;;5029190;28;20595;-59
2023/06/30 00:29:50;;;;;;;6.22;3.42;;;20.00;99.90;;;;;;5031031;28;20687;-60
2023/06/30 00:32:18;;;;;;;3.50;2.50;;;20.00;99.90;;;;;;5027031;28;20211;-60
2023/06/30 00:34:45;;;;;;;4.47;2.97;;;20.00;99.90;;;;;;5027638;28;20291;-60
2023/06/30 00:37:14;;;;;;;4.78;2.80;;;20.10;99.90;;;;;;5028061;28;20192;-60
2023/06/30 00:39:41;;;;;;;3.22;2.60;;;20.10;99.90;;;;;;5027239;28;20220;-60
2023/06/30 00:42:08;;;;;;;4.70;2.90;;;20.10;99.90;;;;;;5025578;28;20196;-60
2023/06/30 00:44:35;;;;;;;5.15;2.92;;;20.00;99.90;;;;;;5027053;28;20224;-60
2023/06/30 00:47:02;;;;;;;2.90;2.28;;;19.90;99.90;;;;;;5026113;28;20266;-60
2023/06/30 00:49:31;;;;;;;3.08;2.22;;;19.90;99.90;;;;;;5028195;28;20223;-60
2023/06/30 00:52:00;;;;;;;4.70;2.80;;;19.70;99.90;;;;;;5028098;28;20187;-59
2023/06/30 00:54:27;;;;;;;4.10;2.55;;;19.70;99.90;;;;;;5024199;28;20208;-59
2023/06/30 00:56:57;;;;;;;6.95;2.22;;;19.70;99.90;;;;;;5020349;28;20200;-60
2023/06/30 00:59:25;;;;;;;4.18;2.63;;;19.70;99.90;;;;;;5027397;28;20722;-60
2023/06/30 01:02:07;;;;;;;4.60;2.45;;;19.70;99.90;;;;;;5027612;28;20371;-60
2023/06/30 01:05:00;;;;;;;3.42;2.40;;;19.60;99.90;;;;;;5028525;28;20216;-59
2023/06/30 01:08:00;;;;;;;4.38;2.00;;;19.60;99.90;;;;;;5018450;28;20201;-60
2023/06/30 01:10:31;;;;;;;3.42;2.30;;;19.70;99.90;;;;;;5025607;28;20299;-59
2023/06/30 01:13:00;;;;;;;3.00;1.75;;;19.80;99.90;;;;;;5022116;28;20551;-59
2023/06/30 01:15:28;;;;;;;2.80;1.60;;;19.70;99.90;;;;;;5028392;28;20289;-59
2023/06/30 01:17:59;;;;;;;4.00;2.10;;;19.80;99.90;;;;;;5023822;28;20207;-59
2023/06/30 01:20:30;;;;;;;2.70;1.42;;;19.60;99.90;;;;;;5026459;28;20188;-67
2023/06/30 01:23:02;;;;;;;3.67;1.70;;;19.60;99.90;;;;;;5027048;28;20204;-59
2023/06/30 01:25:30;;;;;;;8.57;1.65;;;19.50;99.90;;;;;;5026457;28;20189;-58
2023/06/30 01:27:59;;;;;;;3.15;1.60;;;19.50;99.90;;;;;;5025463;28;20284;-58
2023/06/30 01:30:29;;;;;;;3.60;1.55;;;19.50;99.90;;;;;;5026352;28;20190;-60
2023/06/30 01:32:58;;;;;;;2.42;1.65;;;19.40;99.90;;;;;;5026935;28;20598;-60
2023/06/30 01:35:26;;;;;;;2.80;2.03;;;19.50;99.90;;;;;;5025707;28;20211;-60
2023/06/30 01:37:54;;;;;;;3.78;1.65;;;19.40;99.90;;;;;;5020817;28;20226;-60
2023/06/30 01:40:22;;;;;;;1.40;1.30;;;19.20;99.90;;;;;;5028509;28;20680;-60
2023/06/30 01:42:53;;;;;;;1.85;1.67;;;19.20;99.90;;;;;;5026423;28;20933;-60
2023/06/30 01:45:22;;;;;;;1.92;1.70;;;19.20;99.90;;;;;;5027098;28;20230;-60
2023/06/30 01:47:50;;;;;;;1.85;1.50;;;19.20;99.90;;;;;;5023818;28;20255;-60
2023/06/30 01:50:18;;;;;;;2.45;1.50;;;19.10;99.90;;;;;;5026480;28;20195;-59
2023/06/30 01:52:45;;;;;;;2.10;1.80;;;19.10;99.90;;;;;;5021091;28;20254;-59
2023/06/30 01:55:13;;;;;;;6.10;3.88;;;19.20;99.90;;;;;;5027203;28;20195;-59
2023/06/30 01:57:40;;;;;;;7.57;4.57;;;19.20;99.90;;;;;;5022839;28;20192;-59
2023/06/30 02:00:08;;;;;;;4.65;3.13;;;19.10;99.90;;;;;;5026402;28;20203;-59
2023/06/30 02:02:41;;;;;;;2.70;2.40;;;19.10;99.90;;;;;;5021925;28;20208;-59
2023/06/30 02:05:12;;;;;;;3.25;1.90;;;18.90;99.90;;;;;;5027647;28;20212;-59
2023/06/30 02:07:39;;;;;;;5.82;2.22;;;18.80;99.90;;;;;;5026077;28;20188;-65
2023/06/30 02:10:07;;;;;;;2.20;1.90;;;18.80;99.90;;;;;;5021811;28;20262;-60
2023/06/30 02:12:35;;;;;;;5.78;2.40;;;18.90;99.90;;;;;;5026159;28;20291;-56
2023/06/30 02:15:03;;;;;;;11.10;6.95;;;18.80;99.90;;;;;;5026084;28;20235;-57
2023/06/30 02:17:32;;;;;;;5.95;4.63;;;18.90;99.90;;;;;;5026324;28;20698;-56
2023/06/30 02:20:00;;;;;;;8.20;4.47;;;18.80;99.90;;;;;;5025840;28;20291;-57
2023/06/30 02:22:28;;;;;;;8.23;5.32;;;18.70;99.90;;;;;;5026155;28;20201;-56
2023/06/30 02:24:56;;;;;;;9.32;6.35;;;18.70;99.90;;;;;;5025961;28;20685;-57
2023/06/30 02:27:24;;;;;;;9.27;6.50;;;18.70;99.90;;;;;;5024471;28;20203;-57
2023/06/30 02:29:51;;;;;;;12.88;7.90;;;18.70;99.90;;;;;;5022568;28;20220;-59
2023/06/30 02:32:19;;;;;;;12.98;6.03;;;18.70;99.90;;;;;;5024881;28;20311;-59
2023/06/30 02:34:46;;;;;;;6.45;3.35;;;18.60;99.90;;;;;;5026022;28;20198;-59
2023/06/30 02:37:13;;;;;;;3.97;2.75;;;18.50;99.90;;;;;;5012394;28;20270;-60
2023/06/30 02:39:40;;;;;;;2.83;2.15;;;18.40;99.90;;;;;;5012109;28;20244;-60
2023/06/30 02:42:07;;;;;;;3.33;2.13;;;18.20;99.90;;;;;;5007515;28;20200;-60
2023/06/30 02:44:34;;;;;;;3.92;2.08;;;18.20;99.90;;;;;;5019204;28;20672;-60
2023/06/30 02:47:02;;;;;;;1.60;1.50;;;18.20;99.90;;;;;;5037221;28;20259;-60
2023/06/30 02:49:30;;;;;;;3.35;1.73;;;18.30;99.90;;;;;;5017407;28;20272;-60
2023/06/30 02:52:00;;;;;;;1.95;1.73;;;18.30;99.90;;;;;;5028884;28;20498;-60
2023/06/30 02:54:27;;;;;;;2.08;1.80;;;18.30;99.90;;;;;;5008714;28;20279;-59
2023/06/30 02:56:54;;;;;;;1.70;1.60;;;18.30;99.90;;;;;;5025202;28;20208;-59
2023/06/30 02:59:21;;;;;;;2.20;1.70;;;18.30;99.90;;;;;;5022276;28;20192;-59
2023/06/30 03:01:48;;;;;;;1.67;1.58;;;18.40;99.90;;;;;;5026924;28;20188;-59
2023/06/30 03:04:15;;;;;;;2.03;1.80;;;18.30;99.90;;;;;;5024152;28;20255;-59
2023/06/30 03:06:42;;;;;;;3.85;1.92;;;18.20;99.90;;;;;;5018148;28;20200;-59
2023/06/30 03:09:11;;;;;;;2.00;1.80;;;18.40;99.90;;;;;;5018583;28;20655;-58
2023/06/30 03:11:38;;;;;;;4.90;2.00;;;18.30;99.90;;;;;;5024957;28;20570;-58
2023/06/30 03:14:05;;;;;;;2.03;1.52;;;18.20;99.90;;;;;;5020955;28;20287;-59
2023/06/30 03:16:40;;;;;;;2.42;1.70;;;18.20;99.90;;;;;;5025557;28;20196;-59
2023/06/30 03:19:07;;;;;;;2.80;1.60;;;18.00;99.90;;;;;;5025338;28;20584;-59
2023/06/30 03:21:35;;;;;;;2.00;1.77;;;18.00;99.90;;;;;;5021086;28;20251;-59
2023/06/30 03:24:02;;;;;;;3.00;1.75;;;17.90;99.90;;;;;;5026115;28;20279;-59
2023/06/30 03:26:29;;;;;;;3.05;1.70;;;17.90;99.90;;;;;;5026181;28;20196;-59
2023/06/30 03:28:56;;;;;;;3.75;2.05;;;17.90;99.90;;;;;;5021632;28;20192;-59
2023/06/30 03:31:24;;;;;;;2.22;1.80;;;18.10;99.90;;;;;;5024517;28;20235;-59
2023/06/30 03:33:51;;;;;;;2.67;1.95;;;18.20;99.90;;;;;;5033388;28;20208;-59
2023/06/30 03:36:18;;;;;;;3.90;1.65;;;18.20;99.90;;;;;;5020669;28;20657;-59
2023/06/30 03:38:45;;;;;;;3.17;2.00;;;18.20;99.90;;;;;;5021466;28;20258;-60
2023/06/30 03:41:13;;;;;;;4.68;2.00;;;18.20;99.90;;;;;;5022031;28;20285;-60
2023/06/30 03:43:40;;;;;;;4.03;1.85;;;18.20;99.90;;;;;;5026879;28;20203;-59
2023/06/30 03:46:09;;;;;;;3.40;1.95;;;18.10;99.90;;;;;;5020454;28;20192;-59
2023/06/30 03:48:37;;;;;;;3.25;2.40;;;18.00;99.90;;;;;;5025356;28;20187;-59
2023/06/30 03:51:03;;;;;;;2.92;2.28;;;18.00;99.90;;;;;;5021307;28;20618;-58
2023/06/30 03:53:30;;;;;;;5.32;2.40;;;18.10;99.90;;;;;;5022761;28;20185;-58
2023/06/30 03:55:58;;;;;;;3.70;2.13;;;18.10;99.90;;;;;;5022245;28;20208;-59
2023/06/30 03:58:25;;;;;;;3.65;2.65;;;18.10;99.90;;;;;;5026326;28;20743;-59
2023/06/30 04:00:53;;;;;;;3.03;1.88;;;18.10;99.90;;;;;;5004969;28;20222;-59
2023/06/30 04:03:20;;;;;;;3.60;2.00;;;18.10;99.90;;;;;;5022892;28;20688;-60
2023/06/30 04:05:49;;;;;;;4.32;1.92;;;18.10;99.90;;;;;;5024881;28;20692;-60
2023/06/30 04:08:16;;;;;;;2.70;2.00;;;18.10;99.90;;;;;;5013160;28;20196;-61
2023/06/30 04:10:43;;;;;;;3.80;2.72;;;18.20;99.90;;;;;;5022808;28;20197;-58
2023/06/30 04:13:11;;;;;;;5.25;2.17;;;18.30;99.90;;;;;;5026721;28;20865;-58
2023/06/30 04:15:38;;;;;;;6.00;2.85;;;18.30;99.90;;;;;;5025684;28;20200;-58
2023/06/30 04:18:05;;;;;;;2.30;2.05;;;18.10;99.90;;;;;;5023290;28;20219;-59
2023/06/30 04:20:31;;;;;;;6.20;2.63;;;18.20;99.90;;;;;;5022026;28;20523;-59
2023/06/30 04:22:58;;;;;;;5.22;2.35;;;18.20;99.90;;;;;;5025222;28;20200;-59
2023/06/30 04:25:25;;;;;;;6.28;2.88;;;18.20;99.90;;;;;;5024536;28;20581;-59
2023/06/30 04:27:52;;;;;;;4.80;3.10;;;18.00;99.90;;;;;;5024915;28;20682;-59
2023/06/30 04:30:19;;;;;;;5.68;2.55;;;18.00;99.90;;;;;;5024380;28;20267;-59
2023/06/30 04:32:46;;;;;;;6.40;3.22;;;18.00;99.90;;;;;;5022293;28;20239;-59
2023/06/30 04:35:14;;;;;;;5.57;3.03;;;17.90;99.90;;;;;;5025782;28;20211;-59
2023/06/30 04:37:41;;;;;;;3.75;2.70;;;17.80;99.90;;;;;;5016363;28;20200;-59
2023/06/30 04:40:09;;;;;;;6.88;2.97;;;17.90;99.90;;;;;;5024341;28;20185;-59
2023/06/30 04:42:37;;;;;;;8.00;3.08;;;17.90;99.90;;;;;;5026133;28;20188;-59
2023/06/30 04:45:05;;;;;;;6.88;2.72;;;18.00;99.90;;;;;;5023308;28;20212;-59
2023/06/30 04:47:32;;;;;;;6.32;2.20;;;18.10;99.90;;;;;;5025275;28;20326;-58
2023/06/30 04:49:59;;;;;;;3.38;2.60;;;18.30;99.90;;;;;;5018636;28;20287;-58
2023/06/30 04:52:26;;;;;;;5.22;3.00;;;18.30;99.90;;;;;;5018600;28;20235;-59
2023/06/30 04:54:54;;;;;;;5.15;2.78;;;18.20;99.90;;;;;;5025252;28;20232;-58
2023/06/30 04:57:22;;;;;;;5.57;2.20;;;18.30;99.90;;;;;;5024295;28;20192;-58
2023/06/30 04:59:52;;;;;;;4.72;2.47;;;18.30;99.90;;;;;;5023943;28;20255;-61
2023/06/30 05:02:19;;;;;;;6.55;2.60;;;18.50;99.90;;;;;;5021566;28;20268;-59
2023/06/30 05:04:46;;;;;;;2.85;2.00;;;18.60;99.90;;;;;;5027123;28;20209;-59
2023/06/30 05:07:13;;;;;;;4.20;3.05;;;18.80;99.90;;;;;;5026224;28;20761;-59
2023/06/30 05:09:40;;;;;;;6.60;2.58;;;18.80;99.90;;;;;;5027108;28;20188;-58
2023/06/30 05:12:07;;;;;;;3.40;2.58;;;18.70;99.90;;;;;;5025215;28;20725;-58
2023/06/30 05:14:35;;;;;;;3.22;2.60;;;18.80;99.90;;;;;;5027696;28;20224;-58
2023/06/30 05:17:02;;;;;;;5.10;2.88;;;18.80;99.90;;;;;;5023700;28;20270;-59
2023/06/30 05:19:29;;;;;;;6.32;3.20;;;18.60;99.90;;;;;;5026222;28;20212;-59
2023/06/30 05:21:56;;;;;;;6.38;2.65;;;18.50;99.90;;;;;;5027626;28;20250;-59
2023/06/30 05:24:23;;;;;;;7.82;2.90;;;18.50;99.90;;;;;;5028740;28;20222;-59
2023/06/30 05:26:50;;;;;;;4.03;2.50;;;18.60;99.90;;;;;;5028270;28;22740;-61
2023/06/30 05:29:17;;;;;;;3.65;2.83;;;18.70;99.90;;;;;;5027681;28;20223;-58
2023/06/30 05:31:44;;;;;;;3.90;2.53;;;18.80;99.90;;;;;;5025078;28;20203;-60
2023/06/30 05:34:15;;;;;;;2.97;2.60;;;18.90;99.90;;;;;;5027351;28;20250;-59
2023/06/30 05:36:44;;;;;;;4.88;3.03;;;18.90;99.90;;;;;;5028038;28;20223;-59
2023/06/30 05:39:12;;;;;;;7.32;2.40;;;19.10;99.90;;;;;;5022573;28;20272;-59
2023/06/30 05:41:39;;;;;;;4.22;2.33;;;19.20;99.90;;;;;;5026861;28;20197;-60
2023/06/30 05:44:09;;;;;;;5.40;2.72;;;19.40;99.90;;;;;;5025059;28;20636;-59
2023/06/30 05:46:39;;;;;;;3.53;2.40;;;19.30;99.90;;;;;;5028624;28;20239;-59
2023/06/30 05:49:06;;;;;;;7.93;2.55;;;19.30;99.90;;;;;;5027777;28;20197;-59
2023/06/30 05:51:34;;;;;;;7.95;2.63;;;19.60;99.90;;;;;;5023243;28;20192;-58
2023/06/30 05:54:02;;;;;;;4.28;2.25;;;19.60;99.90;;;;;;5021295;28;20274;-57
2023/06/30 05:56:30;;;;;;;4.20;1.98;;;19.70;99.90;;;;;;5027605;28;20655;-59
2023/06/30 05:58:57;;;;;;;2.20;1.80;;;19.90;99.90;;;;;;5027260;28;20200;-58
2023/06/30 06:01:24;;;;;;;5.18;1.83;;;20.10;99.90;;;;;;5020531;28;20283;-57
2023/06/30 06:03:51;;;;;;;2.63;1.52;;;20.30;99.90;;;;;;5021265;28;20227;-57
2023/06/30 06:06:19;;;;;;;4.50;1.77;;;20.40;99.90;;;;;;5019902;28;20769;-57
2023/06/30 06:08:48;;;;;;;6.18;2.15;;;20.50;99.90;;;;;;5023309;28;20192;-58
2023/06/30 06:11:15;;;;;;;5.93;1.88;;;20.40;99.90;;;;;;5022167;28;20193;-58
2023/06/30 06:13:42;;;;;;;8.18;1.92;;;20.40;99.90;;;;;;5023033;28;20206;-57
2023/06/30 06:16:10;;;;;;;2.92;1.60;;;20.20;99.90;;;;;;5024033;28;20240;-58
2023/06/30 06:18:37;;;;;;;6.00;1.85;;;20.30;99.90;;;;;;5022649;28;20731;-58
2023/06/30 06:21:04;;;;;;;4.25;1.90;;;20.50;99.90;;;;;;5019456;28;20201;-58
2023/06/30 06:23:35;;;;;;;6.43;1.92;;;20.30;99.90;;;;;;5024292;28;20196;-58
2023/06/30 06:26:02;;;;;;;3.17;1.70;;;20.30;99.90;;;;;;5021606;28;20235;-58
2023/06/30 06:28:29;;;;;;;4.65;1.52;;;20.00;99.90;;;;;;5020909;28;20199;-59
2023/06/30 06:30:56;;;;;;;3.60;1.63;;;19.90;99.90;;;;;;5019919;28;20197;-58
2023/06/30 06:33:23;;;;;;;2.97;1.45;;;20.20;99.90;;;;;;5020743;28;20189;-58
2023/06/30 06:35:53;;;;;;;4.72;1.77;;;20.20;99.90;;;;;;5018303;28;20247;-58
2023/06/30 06:38:20;;;;;;;4.45;1.42;;;20.70;99.90;;;;;;5026637;28;20245;-58
2023/06/30 06:40:47;;;;;;;4.55;1.48;;;21.00;99.90;;;;;;5021737;28;20243;-58
2023/06/30 06:43:14;;;;;;;6.10;1.58;;;21.20;99.90;;;;;;5023302;28;20204;-58
2023/06/30 06:45:42;;;;;;;5.40;1.98;;;20.90;99.90;;;;;;5023369;28;20223;-58
2023/06/30 06:48:27;;;;;;;1.45;1.10;;;20.90;99.90;;;;;;5023376;28;20252;-58
2023/06/30 06:51:02;;;;;;;4.72;1.85;;;21.40;99.90;;;;;;5024417;28;20188;-58
2023/06/30 06:53:31;;;;;;;6.78;1.92;;;21.40;99.90;;;;;;5025951;28;20625;-58
2023/06/30 06:55:58;;;;;;;6.75;1.83;;;21.50;99.90;;;;;;5026489;28;20266;-58
2023/06/30 06:58:28;;;;;;;2.67;1.58;;;21.60;99.90;;;;;;5021800;28;20204;-61
2023/06/30 07:00:55;;;;;;;1.92;1.42;;;21.50;99.90;;;;;;5006824;28;20628;-58
2023/06/30 07:03:23;;;;;;;2.80;1.48;;;21.40;99.90;;;;;;5024832;28;20227;-58
2023/06/30 07:05:50;;;;;;;3.63;2.00;;;21.10;99.90;;;;;;5019113;28;20677;-58
2023/06/30 07:08:19;;;;;;;3.20;1.55;;;21.00;99.90;;;;;;5024530;28;20257;-58
2023/06/30 07:10:47;;;;;;;4.03;1.50;;;21.50;99.90;;;;;;5018321;28;20196;-59
2023/06/30 07:13:17;;;;;;;4.93;1.65;;;22.30;99.90;;;;;;5021926;28;20195;-58
2023/06/30 07:15:50;;;;;;;5.43;1.40;;;22.70;99.90;;;;;;5024093;28;20222;-58
2023/06/30 07:18:18;;;;;;;4.75;1.30;;;23.20;99.90;;;;;;5024122;28;20659;-58
2023/06/30 07:20:47;;;;;;;2.60;1.20;;;24.10;99.90;;;;;;5020654;28;20196;-60
2023/06/30 07:23:14;;;;;;;6.57;1.60;;;24.90;99.90;;;;;;5021327;28;20524;-56
2023/06/30 07:25:43;;;;;;;3.50;1.42;;;25.80;99.90;;;;;;5020684;28;20625;-55
2023/06/30 07:28:11;;;;;;;5.07;1.38;;;27.50;99.90;;;;;;5024902;28;20199;-56
2023/06/30 07:30:40;;;;;;;4.90;1.40;;;28.90;99.90;;;;;;5017289;28;20275;-56
2023/06/30 07:33:10;;;;;;;3.63;1.30;;;29.50;99.90;;;;;;5034271;28;20270;-56
2023/06/30 07:35:38;;;;;;;4.28;2.00;;;30.80;99.90;;;;;;5020046;28;20624;-56
2023/06/30 07:38:04;;;;;;;6.80;1.52;;;31.10;99.30;;;;;;5022158;28;20212;-56
2023/06/30 07:40:31;;;;;;;1.83;0.90;;;29.50;99.90;;;;;;4995788;28;20204;-56
2023/06/30 07:43:18;;;;;;;3.42;1.33;;;31.30;99.60;;;;;;5023776;28;20630;-56
2023/06/30 07:45:45;;;;;;;2.78;1.20;;;30.70;95.60;;;;;;5021103;28;20219;-56
2023/06/30 07:48:13;;;;;;;4.15;1.42;;;30.80;95.80;;;;;;5019925;28;20735;-56
2023/06/30 07:50:40;;;;;;;3.88;1.38;;;31.60;95.40;;;;;;5019951;28;20800;-56
2023/06/30 07:53:25;;;;;;;2.15;0.90;;;33.60;93.20;;;;;;5022647;28;20207;-56
2023/06/30 07:55:52;;;;;;;3.20;1.02;;;35.20;91.20;;;;;;5021675;28;20211;-56
2023/06/30 07:58:19;;;;;;;4.32;0.93;;;36.00;89.90;;;;;;5023350;28;20188;-57
2023/06/30 08:00:46;;;;;;;1.88;1.10;;;35.30;85.90;;;;;;5021356;28;20203;-56
2023/06/30 08:03:13;;;;;;;3.17;1.30;;;33.30;75.60;;;;;;5020968;28;20334;-56
2023/06/30 08:05:40;;;;;;;3.72;1.27;;;29.90;75.90;;;;;;5025046;28;21088;-57
2023/06/30 08:08:07;;;;;;;2.38;1.10;;;27.00;80.20;;;;;;5018219;28;20609;-57
2023/06/30 08:10:34;;;;;;;4.22;1.00;;;25.30;81.00;;;;;;5021044;28;20196;-56
2023/06/30 08:13:05;;;;;;;6.13;1.17;;;23.90;83.90;;;;;;5020753;28;20195;-55
2023/06/30 08:15:32;;;;;;;2.33;1.30;;;23.10;84.20;;;;;;5022312;28;20669;-56
2023/06/30 08:17:59;;;;;;;2.97;1.45;;;22.80;87.40;;;;;;5018648;28;20564;-56
2023/06/30 08:20:36;;;;;;;2.42;1.23;;;23.40;90.90;;;;;;5023929;28;20196;-55
2023/06/30 08:23:03;;;;;;;1.83;1.10;;;24.90;91.30;;;;;;5020625;28;20203;-56
2023/06/30 08:25:30;;;;;;;6.32;1.50;;;26.20;90.40;;;;;;5025414;28;20398;-56
2023/06/30 08:27:57;;;;;;;2.90;1.83;;;26.90;88.20;;;;;;5025328;28;20675;-55
2023/06/30 08:30:24;;;;;;;2.58;1.60;;;27.10;85.90;;;;;;5022021;28;20215;-57
2023/06/30 08:32:54;;;;;;;3.35;1.33;;;27.10;84.80;;;;;;5015356;28;20196;-56
2023/06/30 08:35:22;;;;;;;6.55;1.08;;;26.50;99.90;;;;;;5020292;28;20694;-56
2023/06/30 08:37:49;;;;;;;2.03;0.95;;;26.10;85.00;;;;;;5010440;28;20192;-57
2023/06/30 08:40:25;;;;;;;2.63;1.10;;;26.30;87.00;;;;;;5013598;28;20355;-56
2023/06/30 08:42:55;;;;;;;5.07;1.27;;;26.60;84.20;;;;;;5021373;28;21264;-57
2023/06/30 08:45:28;;;;;;;3.22;1.30;;;27.30;85.70;;;;;;5020202;28;20278;-56
2023/06/30 08:48:04;;;;;;;2.92;1.30;;;27.10;82.90;;;;;;5020909;28;20236;-56
2023/06/30 08:50:35;;;;;;;5.15;1.40;;;27.20;83.80;;;;;;5021767;28;20199;-57
2023/06/30 08:53:04;;;;;;;3.03;1.15;;;26.90;80.30;;;;;;5018491;28;20660;-57
2023/06/30 08:55:31;;;;;;;7.97;1.27;;;26.00;79.50;;;;;;5019351;28;20203;-56
2023/06/30 08:57:58;;;;;;;2.13;1.10;;;25.50;80.90;;;;;;5014894;28;20205;-56
2023/06/30 09:00:35;;;;;;;1.33;0.82;;;25.80;82.80;;;;;;5022807;28;20285;-57
2023/06/30 09:03:06;;;;;;;4.82;1.00;;;26.70;85.50;;;;;;5019120;28;20816;-56
2023/06/30 09:05:36;;;;;;;1.58;0.90;;;29.70;86.50;;;;;;5017304;28;20628;-56
2023/06/30 09:08:28;;;;;;;3.10;1.00;;;32.10;80.00;;;;;;5016869;28;20250;-57
2023/06/30 09:10:56;;;;;;;3.25;1.10;;;33.20;74.70;;;;;;5013389;28;20667;-55
2023/06/30 09:13:24;;;;;;;2.13;1.10;;;34.20;76.00;;;;;;5025272;28;20282;-55
2023/06/30 09:15:54;;;;;;;2.88;1.00;;;31.30;63.40;;;;;;5019546;28;20200;-57
2023/06/30 09:18:22;;;;;;;1.88;0.77;;;27.80;63.70;;;;;;5023925;28;20737;-56
2023/06/30 09:20:49;;;;;;;3.25;1.10;;;25.80;66.90;;;;;;5025725;28;20196;-56
2023/06/30 09:23:16;;;;;;;2.38;1.15;;;26.20;75.10;;;;;;5019095;28;20192;-56
2023/06/30 09:25:43;;;;;;;1.85;1.10;;;28.70;74.20;;;;;;5021919;28;20215;-56
2023/06/30 09:28:14;;;;;;;2.85;1.42;;;30.30;70.40;;;;;;5018887;28;20555;-57
2023/06/30 09:30:46;;;;;;;6.38;1.05;;;31.70;68.20;;;;;;5021835;28;20188;-56
2023/06/30 09:33:15;;;;;;;3.22;1.17;;;31.70;62.50;;;;;;5022480;28;20193;-56
2023/06/30 09:35:44;;;;;;;3.53;1.40;;;29.00;59.70;;;;;;5015982;28;20239;-56
2023/06/30 09:38:14;;;;;;;2.20;0.80;;;28.60;67.40;;;;;;5020492;28;20560;-56
2023/06/30 09:40:49;;;;;;;3.10;1.00;;;30.10;62.80;;;;;;5018602;28;20279;-57
2023/06/30 09:43:20;;;;;;;1.48;0.80;;;30.90;62.50;;;;;;5025910;28;20196;-57
2023/06/30 09:46:00;;;;;;;1.75;0.75;;;32.80;59.30;;;;;;5016955;28;20559;-56
2023/06/30 09:48:32;;;;;;;3.28;1.20;;;33.30;56.40;;;;;;5019748;28;20224;-57
2023/06/30 09:50:59;;;;;;;2.38;0.98;;;33.20;57.60;;;;;;5019699;28;20643;-57
2023/06/30 09:53:35;;;;;;;4.05;1.10;;;33.90;53.10;;;;;;5020158;28;20203;-56
2023/06/30 09:56:02;;;;;;;6.57;1.27;;;30.60;53.10;;;;;;5022836;28;20210;-56
2023/06/30 09:58:30;;;;;;;2.70;1.02;;;27.70;53.80;;;;;;5017245;28;20196;-56
2023/06/30 10:00:57;;;;;;;3.50;0.82;;;28.40;59.00;;;;;;5016210;28;20994;-57
2023/06/30 10:03:24;;;;;;;6.40;1.38;;;30.00;55.30;;;;;;5015427;28;20230;-55
2023/06/30 10:05:52;;;;;;;2.33;0.98;;;30.60;52.30;;;;;;5037344;28;21385;-56
2023/06/30 10:08:22;;;;;;;1.80;1.00;;;32.10;54.40;;;;;;5019572;28;20212;-56
2023/06/30 10:10:52;;;;;;;2.70;0.95;;;32.60;50.80;;;;;;5022787;28;20616;-56
2023/06/30 10:13:20;;;;;;;1.95;1.08;;;33.50;49.50;;;;;;5022391;28;20202;-57
2023/06/30 10:15:48;;;;;;;2.53;0.88;;;32.00;47.40;;;;;;5018907;28;20279;-60
2023/06/30 10:18:17;;;;;;;2.15;0.90;;;29.30;49.80;;;;;;5022962;28;20200;-58
2023/06/30 10:20:45;;;;;;;1.98;1.10;;;29.10;53.20;;;;;;5023244;28;20207;-56
2023/06/30 10:23:20;;;;;;;2.00;0.90;;;31.30;50.80;;;;;;5015054;28;20199;-57
2023/06/30 10:25:49;;;;;;;1.30;0.90;;;33.00;48.60;;;;;;5016188;28;20277;-57
2023/06/30 10:28:19;;;;;;;2.95;0.75;;;33.90;45.10;;;;;;5021718;28;20762;-57
2023/06/30 10:30:50;;;;;;;3.92;1.23;;;32.30;44.30;;;;;;5020692;28;20196;-57
2023/06/30 10:33:17;;;;;;;1.80;1.20;;;32.90;44.10;;;;;;5019227;28;20202;-59
2023/06/30 10:35:45;;;;;;;2.75;0.80;;;33.50;44.10;;;;;;5016980;28;20204;-59
2023/06/30 10:38:13;;;;;;;4.53;1.38;;;32.90;43.70;;;;;;5019343;28;20591;-60
2023/06/30 10:40:40;;;;;;;1.73;1.00;;;34.60;42.40;;;;;;5013737;28;20307;-60
2023/06/30 10:43:07;;;;;;;2.83;1.13;;;35.00;40.00;;;;;;5014106;28;20211;-60
2023/06/30 10:45:35;;;;;;;1.63;1.15;;;34.90;39.70;;;;;;5017421;28;20204;-60
2023/06/30 10:48:14;;;;;;;2.42;1.00;;;34.60;38.60;;;;;;5018633;28;20219;-60
2023/06/30 10:50:43;;;;;;;2.00;1.10;;;34.40;39.50;;;;;;5020761;28;20187;-61
2023/06/30 10:53:17;;;;;;;2.13;1.10;;;34.40;35.70;;;;;;5021046;28;20482;-61
2023/06/30 10:55:44;;;;;;;2.95;1.13;;;32.90;36.20;;;;;;5023587;28;20195;-61
2023/06/30 10:58:22;;;;;;;2.63;0.90;;;33.00;35.90;;;;;;5023859;28;20200;-61
2023/06/30 11:01:15;;;;;;;1.63;1.00;;;32.60;37.80;;;;;;5016001;28;20183;-59
2023/06/30 11:03:58;;;;;;;2.38;0.95;;;30.40;38.80;;;;;;5013575;28;20256;-58
2023/06/30 11:06:26;;;;;;;1.98;1.10;;;29.10;40.20;;;;;;5022875;28;20598;-59
2023/06/30 11:09:00;;;;;;;2.13;1.00;;;29.40;41.70;;;;;;5020550;28;20201;-59
2023/06/30 11:11:27;;;;;;;1.45;0.82;;;30.50;40.80;;;;;;5022208;28;20499;-59
2023/06/30 11:14:05;;;;;;;2.63;0.82;;;31.90;39.80;;;;;;5018679;28;20279;-59
2023/06/30 11:17:00;;;;;;;10.45;1.02;;;32.60;36.70;;;;;;5021929;28;20191;-59
2023/06/30 11:19:27;;;;;;;2.88;0.90;;;33.50;35.70;;;;;;5022038;28;20211;-60
2023/06/30 11:22:22;;;;;;;1.92;0.98;;;34.00;32.70;;;;;;5021262;28;20216;-59
2023/06/30 11:24:50;;;;;;;2.47;1.15;;;32.10;33.40;;;;;;5015093;28;20533;-59
2023/06/30 11:27:17;;;;;;;2.00;0.80;;;31.00;36.60;;;;;;5018021;28;20219;-59
2023/06/30 11:29:45;;;;;;;3.45;1.08;;;31.60;35.40;;;;;;5021382;28;20187;-61
2023/06/30 11:32:15;;;;;;;1.73;1.20;;;32.00;34.80;;;;;;5014847;28;20193;-59
2023/06/30 11:34:42;;;;;;;1.08;0.77;;;32.00;33.00;;;;;;5021708;28;20254;-61
2023/06/30 11:37:09;;;;;;;1.88;1.00;;;31.60;34.60;;;;;;5024139;28;20233;-59
2023/06/30 11:39:35;;;;;;;1.48;0.95;;;30.40;34.20;;;;;;5022479;28;20638;-62
2023/06/30 11:42:03;;;;;;;1.63;1.00;;;29.00;38.00;;;;;;5023418;28;20199;-61
2023/06/30 11:44:35;;;;;;;3.92;0.80;;;30.30;36.20;;;;;;5019584;28;20402;-59
2023/06/30 11:47:01;;;;;;;1.75;0.90;;;31.20;57.50;;;;;;5019759;28;20228;-60
2023/06/30 11:49:28;;;;;;;1.63;0.80;;;32.30;34.20;;;;;;5022698;28;20208;-58
2023/06/30 11:51:55;;;;;;;2.33;0.98;;;32.60;32.20;;;;;;5023971;28;20188;-60
2023/06/30 11:54:32;;;;;;;2.05;0.90;;;32.80;32.40;;;;;;5020271;28;20192;-60
2023/06/30 11:57:00;;;;;;;4.53;1.20;;;32.10;31.20;;;;;;5021550;28;20525;-59
2023/06/30 11:59:27;;;;;;;1.52;0.90;;;31.30;33.80;;;;;;5023100;28;20577;-59
2023/06/30 12:01:54;;;;;;;2.70;1.05;;;30.50;32.70;;;;;;5016446;28;20201;-59
2023/06/30 12:04:21;;;;;;;2.42;1.00;;;30.40;34.30;;;;;;5017606;28;20212;-59
2023/06/30 12:06:49;;;;;;;1.60;0.85;;;30.50;33.90;;;;;;5023029;28;20731;-61
2023/06/30 12:09:15;;;;;;;2.95;1.25;;;29.80;34.60;;;;;;5020088;28;20208;-60
2023/06/30 12:11:48;;;;;;;1.33;0.80;;;29.70;34.40;;;;;;5014261;28;20736;-61
2023/06/30 12:14:17;;;;;;;2.13;1.13;;;30.40;35.30;;;;;;5022730;28;20260;-60
2023/06/30 12:20:57;;;;;;;2.40;1.30;;;30.30;33.00;;;;;;5008913;22;20759;-76
2023/06/30 12:23:28;;;;;;;4.50;1.25;;;29.60;34.00;;;;;;5008313;28;20212;-79
2023/06/30 12:30:19;;;;;;;2.15;1.08;;;28.80;34.30;;;;;;5002393;22;20397;-60
2023/06/30 12:32:46;;;;;;;0.85;0.85;;;27.50;34.10;;;;;;5021517;28;20717;-61
2023/06/30 12:35:13;;;;;;;3.60;1.00;;;27.80;35.60;;;;;;5023250;28;20192;-60
2023/06/30 12:37:44;;;;;;;2.47;1.20;;;27.80;36.50;;;;;;5020365;28;20730;-60
2023/06/30 12:40:11;;;;;;;1.42;0.98;;;28.00;36.00;;;;;;5021964;28;20204;-60
2023/06/30 12:42:39;;;;;;;1.85;0.90;;;28.00;36.10;;;;;;5019735;28;20678;-60
2023/06/30 12:45:06;;;;;;;2.33;0.98;;;27.90;35.80;;;;;;5019232;28;20200;-60
2023/06/30 12:47:33;;;;;;;1.70;0.90;;;27.60;35.90;;;;;;5018213;28;20227;-60
2023/06/30 12:50:00;;;;;;;1.77;1.00;;;27.80;35.10;;;;;;5020463;28;20599;-60
2023/06/30 12:52:27;;;;;;;1.95;1.05;;;27.90;35.10;;;;;;5018933;28;20197;-60
2023/06/30 12:54:54;;;;;;;1.65;1.10;;;28.20;35.70;;;;;;5023253;28;20199;-60
2023/06/30 12:57:21;;;;;;;2.20;1.05;;;28.00;35.20;;;;;;5024225;28;20215;-60
2023/06/30 12:59:48;;;;;;;2.78;1.20;;;28.30;35.10;;;;;;5018899;28;20207;-60
2023/06/30 13:02:15;;;;;;;2.28;0.90;;;28.60;35.00;;;;;;5020515;28;20301;-60